Time;durP1;ratioP1;P1;durP2;ratioP2;P2;SDS_P1;SDS_P2;PMS_P1;PMS_P2;Temp;Humidity;BMP_temperature;BMP_pressure;BME280_temperature;BME280_humidity;BME280_pressure;Samples;Min_cycle;Max_cycle;Signal;HPM_P1;HPM_P2
2022/09/25 06:17:31;;;;;;;6.20;1.08;;;17.80;71.00;;;;;;5567660;24;20062;-76
2022/09/25 06:19:56;;;;;;;5.10;1.00;;;17.80;71.30;;;;;;4790411;30;20418;-76
2022/09/25 06:22:22;;;;;;;4.47;0.55;;;17.80;70.70;;;;;;4791100;30;20051;-76
2022/09/25 06:24:49;;;;;;;4.55;1.00;;;17.80;69.50;;;;;;4790860;30;20062;-76
2022/09/25 06:27:14;;;;;;;3.65;1.00;;;17.70;68.70;;;;;;4790766;30;20066;-73
2022/09/25 06:29:40;;;;;;;3.70;0.98;;;17.50;67.80;;;;;;4790511;30;20459;-73
2022/09/25 06:32:06;;;;;;;4.60;1.08;;;17.40;68.20;;;;;;4790021;30;20071;-76
2022/09/25 06:34:31;;;;;;;1.67;0.80;;;17.20;68.60;;;;;;4789625;30;20066;-76
2022/09/25 06:36:59;;;;;;;1.95;0.50;;;17.10;69.10;;;;;;4789696;30;20054;-78
2022/09/25 06:39:25;;;;;;;4.30;1.20;;;17.10;69.50;;;;;;4790056;30;20093;-75
2022/09/25 06:41:52;;;;;;;6.97;1.20;;;17.20;69.50;;;;;;4790023;30;20055;-80
2022/09/25 06:44:19;;;;;;;4.35;0.93;;;17.20;69.20;;;;;;4775167;30;20139;-80
2022/09/25 06:46:53;;;;;;;5.60;1.00;;;17.10;69.20;;;;;;4774649;30;20055;-78
2022/09/25 06:49:19;;;;;;;5.28;0.88;;;17.10;69.30;;;;;;4789997;30;20478;-80
2022/09/25 06:51:45;;;;;;;8.52;1.00;;;17.10;69.70;;;;;;4789331;30;20047;-77
2022/09/25 06:54:11;;;;;;;11.07;1.00;;;17.10;70.00;;;;;;4773405;30;20070;-78
2022/09/25 06:56:37;;;;;;;7.35;1.25;;;17.10;70.00;;;;;;4772866;30;20043;-77
2022/09/25 06:59:03;;;;;;;9.38;0.98;;;17.10;70.00;;;;;;4789690;30;20054;-78
2022/09/25 07:01:29;;;;;;;4.47;1.02;;;17.10;70.00;;;;;;4774357;30;20479;-76
2022/09/25 07:03:55;;;;;;;6.18;1.25;;;17.10;70.80;;;;;;4789744;30;20048;-77
2022/09/25 07:06:25;;;;;;;5.68;0.60;;;17.10;70.40;;;;;;4774012;30;20052;-77
2022/09/25 07:08:51;;;;;;;8.63;1.70;;;17.10;70.40;;;;;;4789766;30;20130;-73
2022/09/25 07:11:21;;;;;;;6.80;1.10;;;17.10;70.50;;;;;;4789522;30;20055;-75
2022/09/25 07:13:53;;;;;;;2.58;0.75;;;17.10;70.60;;;;;;4789122;30;20051;-75
2022/09/25 07:16:21;;;;;;;6.95;0.90;;;17.10;70.60;;;;;;4774018;30;20066;-75
2022/09/25 07:18:47;;;;;;;4.85;0.80;;;17.10;71.20;;;;;;4799519;29;20142;-74
2022/09/25 07:21:15;;;;;;;7.10;1.13;;;17.10;70.90;;;;;;4807528;29;20047;-74
2022/09/25 07:23:42;;;;;;;5.75;1.38;;;17.10;71.80;;;;;;4807818;29;20054;-76
2022/09/25 07:26:09;;;;;;;5.28;0.90;;;17.10;71.10;;;;;;4807633;29;20042;-77
2022/09/25 07:28:36;;;;;;;5.43;1.02;;;17.20;71.20;;;;;;4807638;29;20486;-77
2022/09/25 07:31:17;;;;;;;7.28;1.25;;;17.20;71.40;;;;;;4807563;29;20050;-76
2022/09/25 07:33:44;;;;;;;7.97;1.08;;;17.20;71.40;;;;;;4807648;29;20123;-75
2022/09/25 07:36:10;;;;;;;6.30;1.17;;;17.20;71.40;;;;;;4807541;29;20051;-74
2022/09/25 07:38:36;;;;;;;3.92;0.65;;;17.20;71.40;;;;;;4807690;29;20054;-79
2022/09/25 07:41:04;;;;;;;6.07;1.40;;;17.20;71.50;;;;;;4791995;29;20163;-79
2022/09/25 07:43:30;;;;;;;4.97;0.88;;;17.30;71.50;;;;;;4776537;29;20182;-75
2022/09/25 07:45:56;;;;;;;4.57;1.00;;;17.30;71.60;;;;;;4807752;29;20455;-74
2022/09/25 07:48:22;;;;;;;6.75;1.25;;;17.20;71.50;;;;;;4807503;29;20046;-75
2022/09/25 07:50:48;;;;;;;11.80;1.13;;;17.30;71.60;;;;;;4807261;29;20050;-73
2022/09/25 07:53:17;;;;;;;6.50;0.90;;;17.30;72.00;;;;;;4791728;29;20069;-73
2022/09/25 07:55:43;;;;;;;8.85;1.02;;;17.30;72.20;;;;;;4807739;29;20063;-75
2022/09/25 07:58:09;;;;;;;4.78;1.05;;;17.40;72.30;;;;;;4810246;29;20065;-75
2022/09/25 08:00:35;;;;;;;7.38;0.90;;;17.40;72.60;;;;;;4811250;29;20050;-75
2022/09/25 08:03:00;;;;;;;17.65;1.85;;;17.40;72.60;;;;;;4810555;29;20524;-75
2022/09/25 08:05:27;;;;;;;5.22;1.02;;;17.50;72.80;;;;;;4810697;29;20142;-75
2022/09/25 08:07:53;;;;;;;15.85;2.03;;;17.50;72.80;;;;;;4810687;29;20042;-73
2022/09/25 08:10:20;;;;;;;15.85;1.48;;;17.50;72.90;;;;;;4810964;29;20138;-76
2022/09/25 08:12:46;;;;;;;16.95;2.13;;;17.50;72.90;;;;;;4810535;29;20055;-77
2022/09/25 08:15:13;;;;;;;13.52;1.48;;;17.50;73.40;;;;;;4810465;29;20355;-76
2022/09/25 08:17:40;;;;;;;25.23;3.13;;;17.50;73.80;;;;;;4811036;29;20042;-75
2022/09/25 08:20:06;;;;;;;18.75;2.17;;;17.50;73.70;;;;;;4810390;29;20063;-75
2022/09/25 08:22:32;;;;;;;21.48;2.53;;;17.50;74.00;;;;;;4810329;29;20141;-76
2022/09/25 08:25:01;;;;;;;13.45;1.65;;;17.50;74.30;;;;;;4810278;29;20133;-78
2022/09/25 08:27:28;;;;;;;25.45;2.20;;;17.50;74.20;;;;;;4794658;29;20090;-78
2022/09/25 08:29:53;;;;;;;13.25;1.42;;;17.50;73.60;;;;;;4810722;29;20115;-79
2022/09/25 08:32:19;;;;;;;3.65;0.82;;;17.50;72.20;;;;;;4809910;29;20058;-81
2022/09/25 08:34:45;;;;;;;3.47;0.30;;;17.50;71.70;;;;;;4795004;29;20367;-79
2022/09/25 08:37:11;;;;;;;18.05;1.25;;;17.40;70.40;;;;;;4810475;29;20047;-80
2022/09/25 08:39:36;;;;;;;7.45;0.88;;;17.30;70.00;;;;;;4810390;29;20348;-79
2022/09/25 08:42:04;;;;;;;10.38;1.45;;;17.20;69.70;;;;;;4793719;29;20046;-78
2022/09/25 08:44:43;;;;;;;4.70;0.50;;;17.20;70.50;;;;;;4809342;29;20055;-79
2022/09/25 08:50:19;;;;;;;14.07;1.33;;;17.10;71.00;;;;;;4809879;29;20415;-79
2022/09/25 08:52:49;;;;;;;7.05;0.70;;;17.10;71.20;;;;;;4812295;29;20424;-85
2022/09/25 08:58:41;;;;;;;3.53;0.60;;;17.10;71.30;;;;;;4809925;29;20050;-78
2022/09/25 09:01:12;;;;;;;8.30;1.17;;;17.20;71.40;;;;;;4809880;29;20085;-81
2022/09/25 09:04:05;;;;;;;6.47;0.80;;;17.30;70.70;;;;;;4793254;29;20046;-79
2022/09/25 09:06:32;;;;;;;3.60;0.50;;;17.30;70.70;;;;;;4786159;29;20101;-79
2022/09/25 09:09:08;;;;;;;4.05;0.50;;;17.30;71.00;;;;;;4808925;29;20043;-80
2022/09/25 09:11:56;;;;;;;6.20;0.75;;;17.30;71.30;;;;;;4809515;29;20351;-80
2022/09/25 09:14:23;;;;;;;4.57;1.20;;;17.30;70.80;;;;;;4793570;29;20126;-80
2022/09/25 09:17:16;;;;;;;3.70;0.60;;;17.30;71.50;;;;;;4809621;29;20125;-76
2022/09/25 09:19:46;;;;;;;9.00;0.70;;;17.30;71.30;;;;;;4807737;29;20066;-77
2022/09/25 09:22:14;;;;;;;5.28;0.60;;;17.30;70.10;;;;;;4809230;29;20043;-77
2022/09/25 09:24:53;;;;;;;8.15;0.60;;;17.30;71.50;;;;;;4809339;29;20043;-76
2022/09/25 09:27:53;;;;;;;10.93;1.00;;;17.30;72.00;;;;;;4808987;29;20061;-75
2022/09/25 09:30:48;;;;;;;10.35;0.93;;;17.40;72.10;;;;;;4794087;29;20058;-77
2022/09/25 09:34:06;;;;;;;6.57;0.70;;;17.40;72.10;;;;;;4752414;30;20150;-77
2022/09/25 09:36:31;;;;;;;6.55;0.88;;;17.50;72.20;;;;;;4751126;30;20119;-76
2022/09/25 09:39:09;;;;;;;7.25;0.80;;;17.50;72.30;;;;;;4775230;30;20387;-81
2022/09/25 09:41:53;;;;;;;8.77;0.90;;;17.60;72.50;;;;;;4775608;29;20143;-82
2022/09/25 09:44:50;;;;;;;7.82;1.33;;;17.60;72.70;;;;;;4774954;30;20067;-84
2022/09/25 09:47:38;;;;;;;12.48;1.58;;;17.60;72.50;;;;;;4789989;30;20532;-81
2022/09/25 09:50:25;;;;;;;9.77;1.30;;;17.60;72.10;;;;;;4788355;29;20119;-78
2022/09/25 09:53:03;;;;;;;14.50;0.90;;;17.60;72.00;;;;;;4808870;29;20043;-76
2022/09/25 09:55:46;;;;;;;9.27;1.00;;;17.60;71.60;;;;;;4792483;29;20046;-81
2022/09/25 09:58:38;;;;;;;14.30;1.30;;;17.60;71.10;;;;;;4791660;29;20058;-73
2022/09/25 10:01:05;;;;;;;3.50;0.47;;;17.60;70.90;;;;;;4790223;29;20130;-83
2022/09/25 10:03:36;;;;;;;3.83;0.60;;;17.60;70.50;;;;;;4808259;29;20047;-78
2022/09/25 10:06:08;;;;;;;6.15;0.60;;;17.60;70.50;;;;;;4808393;29;20039;-77
2022/09/25 10:08:35;;;;;;;4.72;0.45;;;17.60;70.80;;;;;;4808319;29;20055;-79
2022/09/25 10:11:09;;;;;;;3.75;0.52;;;17.60;70.90;;;;;;4808703;29;20046;-78
2022/09/25 10:13:39;;;;;;;3.00;0.40;;;17.60;71.00;;;;;;4790700;30;20069;-78
2022/09/25 10:16:16;;;;;;;5.38;0.47;;;17.70;71.20;;;;;;4791219;30;20135;-79
2022/09/25 10:18:48;;;;;;;3.38;0.30;;;17.70;71.20;;;;;;4773778;30;20074;-78
2022/09/25 10:21:20;;;;;;;5.47;0.55;;;17.70;71.30;;;;;;4791476;29;20109;-78
2022/09/25 10:23:47;;;;;;;2.22;0.20;;;17.70;71.20;;;;;;4792262;29;20070;-78
2022/09/25 10:26:37;;;;;;;6.03;0.63;;;17.70;71.30;;;;;;4792824;29;20054;-78
2022/09/25 10:29:22;;;;;;;2.92;0.30;;;17.70;71.30;;;;;;4792400;29;20051;-79
2022/09/25 10:31:57;;;;;;;2.33;0.60;;;17.70;71.30;;;;;;4792088;29;20061;-78
2022/09/25 10:34:25;;;;;;;4.50;0.38;;;17.70;71.30;;;;;;4792575;29;20115;-78
2022/09/25 10:36:53;;;;;;;3.75;0.57;;;17.70;71.30;;;;;;4808448;29;20112;-78
2022/09/25 10:39:40;;;;;;;4.40;0.68;;;17.70;71.30;;;;;;4792290;29;20549;-79
2022/09/25 10:42:41;;;;;;;4.82;0.77;;;17.70;71.10;;;;;;4792480;29;20058;-79
2022/09/25 10:45:27;;;;;;;1.20;0.20;;;17.70;70.90;;;;;;4780811;29;20046;-77
2022/09/25 10:50:41;;;;;;;2.38;0.20;;;17.70;70.10;;;;;;4791657;29;20046;-79
2022/09/25 10:53:27;;;;;;;2.03;0.20;;;17.70;69.70;;;;;;4807441;29;20038;-78
2022/09/25 10:56:03;;;;;;;1.88;0.40;;;17.70;69.30;;;;;;4790054;29;20054;-79
2022/09/25 10:58:38;;;;;;;4.78;0.30;;;17.70;69.00;;;;;;4797798;29;20477;-81
2022/09/25 11:01:12;;;;;;;1.92;0.20;;;17.70;68.90;;;;;;4786796;29;20092;-80
2022/09/25 11:06:51;;;;;;;2.58;0.40;;;17.70;68.50;;;;;;4779701;29;20444;-79
2022/09/25 11:13:35;;;;;;;1.60;0.40;;;17.70;68.60;;;;;;4754858;30;20174;-87
2022/09/25 11:16:08;;;;;;;2.05;0.15;;;17.70;68.50;;;;;;4737070;30;20082;-81
2022/09/25 11:19:38;;;;;;;2.10;0.30;;;17.70;68.20;;;;;;4728585;30;20052;-82
2022/09/25 11:23:03;;;;;;;1.55;0.20;;;17.70;68.30;;;;;;4729749;30;20056;-83
2022/09/25 11:26:24;;;;;;;2.33;0.38;;;17.70;68.10;;;;;;4715669;30;20113;-85
2022/09/25 11:29:20;;;;;;;2.35;0.38;;;17.70;68.50;;;;;;4707554;30;20092;-82
2022/09/25 11:32:03;;;;;;;1.80;0.40;;;17.70;68.30;;;;;;4717014;30;20080;-79
2022/09/25 11:34:54;;;;;;;2.22;0.20;;;17.70;68.40;;;;;;4749625;30;20083;-83
2022/09/25 11:37:29;;;;;;;2.50;0.20;;;17.70;68.50;;;;;;4792904;30;20051;-83
2022/09/25 11:43:00;;;;;;;2.28;0.30;;;17.70;68.30;;;;;;4773399;30;20054;-82
2022/09/25 11:45:35;;;;;;;2.53;0.20;;;17.70;68.00;;;;;;4776930;30;20158;-81
2022/09/25 11:48:22;;;;;;;1.55;0.28;;;17.70;68.20;;;;;;4777039;30;20054;-80
2022/09/25 11:51:27;;;;;;;2.10;0.22;;;17.70;68.00;;;;;;4762858;30;20091;-82
2022/09/25 11:54:09;;;;;;;2.95;0.40;;;17.70;67.80;;;;;;4774988;30;20044;-80
2022/09/25 11:57:08;;;;;;;2.28;0.38;;;17.70;68.00;;;;;;4774194;30;20055;-82
2022/09/25 11:59:50;;;;;;;2.75;0.30;;;17.70;68.10;;;;;;4768812;30;20071;-84
2022/09/25 12:02:49;;;;;;;3.05;0.28;;;17.70;68.20;;;;;;4784799;30;20039;-86
2022/09/25 12:05:30;;;;;;;2.13;0.20;;;17.70;68.50;;;;;;4762019;30;20133;-82
2022/09/25 12:08:04;;;;;;;4.53;1.00;;;17.70;67.50;;;;;;4776853;30;20047;-79
2022/09/25 12:10:35;;;;;;;2.97;0.40;;;17.70;66.90;;;;;;4792252;30;20059;-79
2022/09/25 12:13:37;;;;;;;1.50;0.35;;;17.70;66.40;;;;;;4792134;30;20447;-75
2022/09/25 12:16:03;;;;;;;6.15;0.60;;;17.70;66.50;;;;;;4792230;30;20478;-72
2022/09/25 12:18:49;;;;;;;4.75;0.47;;;17.70;66.70;;;;;;4798486;29;20051;-74
2022/09/25 12:21:55;;;;;;;3.05;0.30;;;17.70;67.30;;;;;;4809439;29;20063;-73
2022/09/25 12:24:39;;;;;;;5.63;0.88;;;17.70;68.00;;;;;;4774262;29;20067;-74
2022/09/25 12:27:07;;;;;;;10.40;1.25;;;17.70;68.40;;;;;;4809483;29;20058;-74
2022/09/25 12:29:51;;;;;;;13.73;1.63;;;17.70;68.20;;;;;;4810455;29;20063;-74
2022/09/25 12:32:51;;;;;;;15.85;2.80;;;17.80;69.20;;;;;;4809774;29;20525;-75
2022/09/25 12:35:44;;;;;;;15.13;2.00;;;17.70;69.70;;;;;;4810487;29;20058;-79
2022/09/25 12:38:12;;;;;;;15.52;1.25;;;17.80;69.40;;;;;;4810138;29;20046;-74
2022/09/25 12:40:47;;;;;;;10.27;1.20;;;17.80;69.40;;;;;;4810010;29;20051;-75
2022/09/25 12:43:32;;;;;;;13.13;1.27;;;17.80;69.70;;;;;;4809755;29;20066;-75
2022/09/25 12:46:29;;;;;;;7.65;1.00;;;17.80;70.10;;;;;;4810200;29;20141;-74
2022/09/25 12:49:13;;;;;;;8.07;1.08;;;17.80;70.10;;;;;;4810139;29;20058;-75
2022/09/25 12:51:51;;;;;;;5.72;1.05;;;17.80;69.80;;;;;;4809877;29;20058;-74
2022/09/25 12:54:25;;;;;;;9.07;1.00;;;17.80;69.80;;;;;;4809940;29;20132;-74
2022/09/25 12:56:50;;;;;;;9.45;1.50;;;17.80;69.70;;;;;;4809567;29;20524;-74
2022/09/25 12:59:37;;;;;;;7.45;1.08;;;17.80;69.50;;;;;;4809479;29;20050;-75
2022/09/25 13:02:15;;;;;;;6.45;0.93;;;17.90;69.40;;;;;;4799648;29;20138;-73
2022/09/25 13:05:06;;;;;;;7.50;1.00;;;17.90;69.90;;;;;;4809297;29;20062;-75
2022/09/25 13:07:44;;;;;;;8.18;1.20;;;17.90;70.80;;;;;;4793752;29;20488;-73
2022/09/25 13:10:32;;;;;;;11.93;1.45;;;17.90;70.10;;;;;;4809643;29;20090;-73
2022/09/25 13:13:02;;;;;;;5.80;0.68;;;17.90;70.00;;;;;;4809751;29;20062;-73
2022/09/25 13:15:31;;;;;;;7.05;0.90;;;17.90;69.80;;;;;;4810041;29;20063;-73
2022/09/25 13:17:57;;;;;;;8.52;0.90;;;17.90;69.80;;;;;;4809031;29;20130;-73
2022/09/25 13:20:30;;;;;;;4.13;1.00;;;17.90;71.10;;;;;;4810185;29;20050;-73
2022/09/25 13:23:03;;;;;;;6.68;1.13;;;18.00;71.20;;;;;;4809357;29;20429;-70
2022/09/25 13:25:30;;;;;;;;;;;18.00;72.10;;;;;;4809932;29;20042;-74
2022/09/25 13:28:06;;;;;;;4.15;0.50;;;18.00;68.30;;;;;;4808664;29;19936;-74
2022/09/25 13:30:32;;;;;;;2.35;0.35;;;17.90;66.40;;;;;;4806650;29;20050;-74
2022/09/25 13:33:01;;;;;;;4.65;0.65;;;17.80;64.10;;;;;;4806118;29;20051;-74
2022/09/25 13:35:28;;;;;;;4.22;0.80;;;17.80;62.90;;;;;;4807953;29;20039;-74
2022/09/25 13:38:08;;;;;;;3.00;0.38;;;17.80;62.40;;;;;;4808297;29;20050;-74
2022/09/25 13:40:44;;;;;;;3.60;0.20;;;17.70;61.00;;;;;;4809018;29;21211;-75
2022/09/25 13:43:32;;;;;;;6.78;0.57;;;17.70;62.80;;;;;;4808001;29;20451;-76
2022/09/25 13:46:17;;;;;;;4.70;0.50;;;17.70;61.40;;;;;;4805935;29;20374;-74
2022/09/25 13:48:43;;;;;;;3.80;0.35;;;17.60;61.40;;;;;;4808487;29;20466;-75
2022/09/25 13:51:32;;;;;;;3.45;0.10;;;17.60;60.80;;;;;;4808111;29;20050;-75
2022/09/25 13:54:22;;;;;;;2.38;0.20;;;17.60;60.30;;;;;;4807985;29;20485;-74
2022/09/25 13:56:49;;;;;;;3.78;0.38;;;17.60;61.10;;;;;;4808861;29;20067;-74
2022/09/25 13:59:35;;;;;;;8.80;0.70;;;17.60;61.90;;;;;;4808110;29;20126;-74
2022/09/25 14:02:37;;;;;;;8.15;0.63;;;17.60;62.50;;;;;;4807672;29;20066;-78
2022/09/25 14:05:04;;;;;;;3.55;0.60;;;17.60;63.20;;;;;;4808812;29;20420;-78
2022/09/25 14:07:30;;;;;;;8.50;0.75;;;17.60;63.50;;;;;;4808024;29;20062;-76
2022/09/25 14:09:59;;;;;;;5.72;0.40;;;17.70;63.70;;;;;;4808259;29;20184;-76
2022/09/25 14:12:41;;;;;;;7.90;0.43;;;17.70;63.90;;;;;;4807617;29;20359;-77
2022/09/25 14:15:21;;;;;;;9.77;7.03;;;17.70;64.10;;;;;;4792036;29;20078;-77
2022/09/25 14:17:49;;;;;;;9.05;2.53;;;17.70;65.70;;;;;;4808346;29;20074;-77
2022/09/25 14:20:32;;;;;;;3.08;1.13;;;17.70;64.00;;;;;;4808746;29;20134;-76
2022/09/25 14:23:19;;;;;;;8.45;1.13;;;17.80;63.60;;;;;;4808058;29;20039;-74
2022/09/25 14:25:55;;;;;;;3.42;0.90;;;17.70;63.20;;;;;;4807978;29;20573;-74
2022/09/25 14:28:32;;;;;;;5.55;0.73;;;17.70;63.80;;;;;;4808250;29;20066;-73
2022/09/25 14:31:22;;;;;;;4.88;0.75;;;17.70;63.90;;;;;;4777272;29;20043;-76
2022/09/25 14:34:10;;;;;;;3.58;0.70;;;17.80;64.10;;;;;;4791956;29;20046;-74
2022/09/25 14:37:03;;;;;;;11.35;0.90;;;17.80;64.50;;;;;;4790352;30;20039;-73
2022/09/25 14:39:44;;;;;;;7.40;2.10;;;17.80;64.90;;;;;;4790355;30;20594;-76
2022/09/25 14:42:50;;;;;;;5.65;1.40;;;17.80;64.70;;;;;;4792537;29;20094;-75
2022/09/25 14:45:24;;;;;;;8.77;1.77;;;17.80;64.60;;;;;;4808341;29;20111;-75
2022/09/25 14:47:54;;;;;;;6.43;1.00;;;17.80;64.80;;;;;;4792563;29;20073;-79
2022/09/25 14:50:24;;;;;;;7.68;1.15;;;17.80;64.80;;;;;;4807894;29;20047;-69
2022/09/25 14:53:01;;;;;;;9.48;1.00;;;17.80;64.60;;;;;;4808018;29;20144;-75
2022/09/25 14:55:40;;;;;;;6.50;0.63;;;17.80;64.40;;;;;;4808053;29;20054;-76
2022/09/25 14:58:14;;;;;;;6.00;0.73;;;17.80;64.30;;;;;;4807944;29;20128;-74
2022/09/25 15:00:52;;;;;;;10.52;0.73;;;17.80;63.90;;;;;;4807684;29;20050;-78
2022/09/25 15:03:23;;;;;;;7.50;1.08;;;17.80;63.80;;;;;;4808086;29;20080;-77
2022/09/25 15:05:50;;;;;;;7.13;1.55;;;17.80;64.00;;;;;;4806717;29;20104;-76
2022/09/25 15:08:23;;;;;;;4.93;0.47;;;17.80;64.20;;;;;;4807341;29;20042;-76
2022/09/25 15:11:01;;;;;;;8.93;1.00;;;17.80;63.80;;;;;;4787830;29;20051;-77
2022/09/25 15:13:32;;;;;;;5.10;0.30;;;17.80;63.50;;;;;;4807855;29;20132;-74
2022/09/25 15:18:47;;;;;;;7.20;0.32;;;17.80;63.10;;;;;;4791099;29;20058;-79
2022/09/25 15:21:38;;;;;;;3.70;0.30;;;17.80;63.00;;;;;;4792560;29;20055;-83
2022/09/25 15:24:09;;;;;;;13.23;1.67;;;17.80;63.00;;;;;;4791527;29;20082;-76
2022/09/25 15:26:40;;;;;;;6.65;0.80;;;17.80;63.40;;;;;;4807841;29;20054;-76
2022/09/25 15:29:17;;;;;;;9.48;0.47;;;17.80;64.00;;;;;;4806982;29;20526;-76
2022/09/25 15:31:49;;;;;;;6.40;0.88;;;17.80;64.70;;;;;;4807678;29;20086;-76
2022/09/25 15:34:26;;;;;;;11.18;0.70;;;17.80;65.00;;;;;;4791479;29;20061;-75
2022/09/25 15:36:52;;;;;;;12.10;1.13;;;17.80;65.20;;;;;;4806317;29;20054;-77
2022/09/25 15:39:24;;;;;;;12.25;0.90;;;17.80;65.30;;;;;;4807534;29;20123;-75
2022/09/25 15:41:50;;;;;;;6.75;0.82;;;17.90;65.40;;;;;;4807174;29;20078;-77
2022/09/25 15:44:24;;;;;;;10.25;0.80;;;17.90;65.50;;;;;;4807607;29;20082;-76
2022/09/25 15:46:56;;;;;;;12.30;0.90;;;17.90;66.00;;;;;;4807740;29;20057;-76
2022/09/25 15:49:24;;;;;;;4.57;0.77;;;17.90;66.00;;;;;;4791231;29;20065;-75
2022/09/25 15:51:59;;;;;;;4.25;0.82;;;17.90;65.90;;;;;;4807294;29;20050;-76
2022/09/25 15:54:27;;;;;;;8.13;0.40;;;17.90;66.20;;;;;;4807322;29;20085;-77
2022/09/25 15:56:54;;;;;;;5.28;0.52;;;17.90;66.00;;;;;;4807788;29;20111;-76
2022/09/25 16:05:19;;;;;;;5.70;0.75;;;17.90;64.50;;;;;;4807221;29;20459;-76
2022/09/25 16:07:45;;;;;;;12.20;0.85;;;17.80;63.40;;;;;;4807290;29;20354;-77
2022/09/25 16:10:17;;;;;;;9.48;0.82;;;17.80;63.30;;;;;;4807446;29;20051;-76
2022/09/25 16:12:48;;;;;;;9.50;0.70;;;17.70;63.30;;;;;;4807055;29;20370;-76
2022/09/25 16:15:25;;;;;;;5.03;0.40;;;17.60;63.10;;;;;;4807257;29;20051;-74
2022/09/25 16:18:00;;;;;;;23.17;2.30;;;17.60;63.10;;;;;;4810049;29;20066;-74
2022/09/25 16:20:33;;;;;;;21.92;2.15;;;17.60;63.10;;;;;;4810419;29;20368;-73
2022/09/25 16:23:03;;;;;;;24.55;2.45;;;17.50;63.30;;;;;;4810089;29;20057;-73
2022/09/25 16:25:36;;;;;;;34.92;3.53;;;17.50;63.60;;;;;;4810119;29;20051;-72
2022/09/25 16:28:04;;;;;;;31.70;2.80;;;17.50;63.70;;;;;;4810351;29;20097;-74
2022/09/25 16:30:30;;;;;;;20.13;2.00;;;17.50;63.60;;;;;;4810263;29;20090;-72
2022/09/25 16:33:32;;;;;;;29.17;2.67;;;17.40;63.50;;;;;;4809957;29;20047;-72
2022/09/25 16:36:01;;;;;;;25.40;3.03;;;17.40;63.60;;;;;;4809655;29;20065;-72
2022/09/25 16:38:29;;;;;;;27.02;3.10;;;17.40;63.90;;;;;;4809883;29;20066;-71
2022/09/25 16:41:21;;;;;;;17.45;2.13;;;17.50;64.00;;;;;;4810489;29;20061;-72
2022/09/25 16:44:14;;;;;;;28.88;2.38;;;17.50;64.10;;;;;;4789632;30;20151;-73
2022/09/25 16:47:15;;;;;;;18.73;2.65;;;17.50;64.30;;;;;;4792426;30;20364;-72
2022/09/25 16:49:42;;;;;;;28.33;2.85;;;17.50;64.40;;;;;;4776111;30;20568;-72
2022/09/25 16:52:21;;;;;;;18.45;1.88;;;17.60;64.50;;;;;;4798410;29;20081;-73
2022/09/25 18:07:32;;;;;;;7.28;0.65;;;17.60;64.60;;;;;;4788225;30;20457;-71
2022/09/25 18:09:57;;;;;;;1.65;0.45;;;17.50;64.60;;;;;;4790152;30;20441;-71
2022/09/25 18:12:23;;;;;;;3.15;0.52;;;17.60;64.90;;;;;;4790247;30;20058;-71
2022/09/25 18:14:49;;;;;;;4.20;0.77;;;17.60;65.10;;;;;;4789175;30;20051;-72
2022/09/25 18:17:15;;;;;;;3.30;0.88;;;17.60;65.20;;;;;;4787892;30;20379;-72
2022/09/25 18:22:43;;;;;;;5.15;0.40;;;17.60;65.20;;;;;;4753418;30;20134;-71
2022/09/25 18:25:09;;;;;;;7.70;1.05;;;17.60;65.20;;;;;;4781696;30;20067;-77
2022/09/25 18:27:40;;;;;;;4.63;0.60;;;17.60;65.00;;;;;;4788327;30;20050;-77
2022/09/25 18:30:10;;;;;;;2.63;0.80;;;17.60;64.70;;;;;;4775618;30;20073;-73
2022/09/25 18:32:36;;;;;;;3.33;0.90;;;17.50;64.30;;;;;;4790491;30;20059;-71
2022/09/25 18:35:03;;;;;;;3.72;0.77;;;17.50;64.50;;;;;;4789796;30;20051;-71
2022/09/25 18:37:29;;;;;;;5.85;0.75;;;17.50;64.70;;;;;;4787442;29;20086;-73
2022/09/25 18:39:55;;;;;;;2.70;0.30;;;17.50;64.60;;;;;;4792330;29;20086;-74
2022/09/25 18:42:20;;;;;;;2.90;0.60;;;17.50;65.10;;;;;;4789967;30;20051;-74
2022/09/25 18:44:46;;;;;;;2.38;0.52;;;17.50;64.20;;;;;;4778747;30;20055;-74
2022/09/25 18:47:13;;;;;;;3.83;0.65;;;17.40;64.10;;;;;;4772370;30;20088;-74
2022/09/25 18:49:38;;;;;;;4.88;0.57;;;17.30;64.30;;;;;;4756469;30;20478;-76
2022/09/25 18:52:05;;;;;;;2.72;0.47;;;17.30;64.60;;;;;;4772281;30;20064;-74
2022/09/25 18:54:30;;;;;;;3.40;0.77;;;17.20;64.60;;;;;;4772240;30;20081;-76
2022/09/25 18:56:57;;;;;;;2.95;0.73;;;17.20;64.60;;;;;;4783180;29;20166;-75
2022/09/25 18:59:25;;;;;;;3.63;0.80;;;17.20;64.70;;;;;;4790167;30;20530;-73
2022/09/25 19:01:53;;;;;;;1.60;0.40;;;17.10;64.70;;;;;;4787418;30;20086;-73
2022/09/25 19:04:19;;;;;;;3.53;0.60;;;17.10;65.00;;;;;;4790034;30;20097;-75
2022/09/25 19:06:46;;;;;;;2.25;0.65;;;17.10;65.20;;;;;;4789410;30;20059;-72
2022/09/25 19:09:12;;;;;;;2.17;0.55;;;17.00;65.40;;;;;;4790118;30;20055;-75
2022/09/25 19:11:38;;;;;;;3.53;0.60;;;17.00;65.40;;;;;;4790268;30;20383;-73
2022/09/25 19:14:04;;;;;;;2.65;0.57;;;17.00;65.40;;;;;;4789724;30;20130;-74
2022/09/25 19:16:32;;;;;;;2.25;0.60;;;16.90;65.50;;;;;;4789892;30;20357;-72
2022/09/25 19:18:58;;;;;;;2.08;0.40;;;16.90;65.80;;;;;;4785750;30;20062;-74
2022/09/25 19:21:25;;;;;;;4.63;0.60;;;16.90;65.70;;;;;;4773903;30;20095;-73
2022/09/25 19:23:51;;;;;;;2.50;0.77;;;16.90;65.60;;;;;;4776020;30;20089;-75
2022/09/25 19:26:21;;;;;;;1.13;0.70;;;16.90;65.50;;;;;;4789620;30;20480;-73
2022/09/25 19:28:47;;;;;;;4.13;0.88;;;16.80;65.40;;;;;;4788790;30;20051;-74
2022/09/25 19:31:16;;;;;;;3.47;0.52;;;16.80;65.50;;;;;;4778501;30;20074;-74
2022/09/25 19:33:43;;;;;;;2.50;0.65;;;16.80;65.60;;;;;;4788854;30;20051;-73
2022/09/25 19:36:18;;;;;;;3.17;0.80;;;16.80;65.50;;;;;;4784494;30;20051;-75
2022/09/25 19:38:44;;;;;;;2.45;0.70;;;16.70;65.40;;;;;;4772247;30;20346;-74
2022/09/25 19:41:28;;;;;;;2.72;0.63;;;16.70;65.20;;;;;;4771755;30;20048;-74
2022/09/25 19:43:58;;;;;;;4.00;0.75;;;16.80;65.10;;;;;;4771558;30;20387;-73
2022/09/25 19:46:26;;;;;;;2.70;0.80;;;16.70;65.00;;;;;;4771904;30;20063;-74
2022/09/25 19:48:51;;;;;;;2.35;0.90;;;16.70;65.00;;;;;;4765186;30;20174;-74
2022/09/25 19:51:20;;;;;;;4.60;1.10;;;16.70;65.00;;;;;;4770196;30;20075;-75
2022/09/25 19:53:47;;;;;;;2.40;0.77;;;16.70;65.10;;;;;;4781660;30;20060;-74
2022/09/25 19:56:13;;;;;;;4.05;0.88;;;16.70;65.80;;;;;;4775126;30;20517;-75
2022/09/25 19:58:39;;;;;;;1.58;0.50;;;16.60;65.10;;;;;;4776854;30;20093;-74
2022/09/25 20:01:09;;;;;;;3.50;1.00;;;16.60;65.10;;;;;;4777307;30;20063;-75
2022/09/25 20:03:35;;;;;;;3.85;1.13;;;16.60;65.10;;;;;;4777322;30;20059;-75
2022/09/25 20:06:01;;;;;;;2.75;0.65;;;16.50;65.10;;;;;;4792184;30;20074;-75
2022/09/25 20:08:27;;;;;;;2.60;0.80;;;16.50;65.10;;;;;;4793073;30;20062;-74
2022/09/25 20:10:53;;;;;;;1.25;0.63;;;16.50;65.10;;;;;;4774853;30;20458;-74
2022/09/25 20:13:19;;;;;;;2.75;0.90;;;16.50;65.10;;;;;;4775121;30;20051;-73
2022/09/25 20:15:46;;;;;;;1.58;0.55;;;16.50;65.00;;;;;;4775025;30;20052;-75
2022/09/25 20:18:13;;;;;;;3.38;0.85;;;16.40;65.10;;;;;;4774530;30;20048;-73
2022/09/25 20:20:39;;;;;;;3.80;1.27;;;16.40;65.10;;;;;;4774451;30;20066;-74
2022/09/25 20:23:06;;;;;;;2.03;0.70;;;16.40;65.10;;;;;;4774948;30;20083;-72
2022/09/25 20:25:33;;;;;;;2.92;1.10;;;16.40;65.20;;;;;;4775301;30;20125;-73
2022/09/25 20:27:59;;;;;;;1.80;0.73;;;16.40;65.20;;;;;;4774655;30;20044;-73
2022/09/25 20:30:25;;;;;;;3.10;0.60;;;16.40;65.30;;;;;;4758767;30;20095;-73
2022/09/25 20:32:51;;;;;;;3.72;1.00;;;16.40;65.20;;;;;;4759097;30;20468;-72
2022/09/25 20:35:17;;;;;;;3.55;0.50;;;16.30;65.00;;;;;;4774406;30;20051;-73
2022/09/25 20:37:45;;;;;;;2.50;0.80;;;16.40;65.10;;;;;;4774402;30;20102;-72
2022/09/25 20:40:12;;;;;;;1.85;0.68;;;16.30;65.00;;;;;;4774592;30;20353;-73
2022/09/25 20:42:37;;;;;;;2.80;0.75;;;16.30;65.10;;;;;;4774394;30;20071;-73
2022/09/25 20:45:04;;;;;;;1.63;0.60;;;16.30;65.10;;;;;;4775057;30;20052;-71
2022/09/25 20:47:32;;;;;;;1.52;0.50;;;16.30;65.00;;;;;;4792504;30;20047;-73
2022/09/25 20:50:03;;;;;;;2.40;0.52;;;16.30;65.00;;;;;;4791893;30;20066;-72
2022/09/25 20:52:32;;;;;;;3.05;0.45;;;16.30;64.80;;;;;;4792166;30;20051;-74
2022/09/25 20:54:58;;;;;;;1.38;0.47;;;16.20;64.90;;;;;;4791880;30;20063;-74
2022/09/25 20:57:24;;;;;;;2.67;0.63;;;16.20;64.90;;;;;;4791836;30;20093;-72
2022/09/25 20:59:49;;;;;;;1.25;0.20;;;16.20;65.00;;;;;;4792441;30;20101;-73
2022/09/25 21:02:16;;;;;;;1.90;0.50;;;16.20;65.10;;;;;;4791820;29;20047;-72
2022/09/25 21:04:43;;;;;;;3.22;0.70;;;16.20;65.20;;;;;;4791787;30;20055;-73
2022/09/25 21:07:10;;;;;;;2.45;0.68;;;16.20;65.50;;;;;;4791871;30;20074;-71
2022/09/25 21:09:35;;;;;;;0.95;0.40;;;16.20;65.60;;;;;;4792021;30;20063;-74
2022/09/25 21:12:04;;;;;;;2.55;0.82;;;16.30;65.60;;;;;;4791640;30;20089;-73
2022/09/25 21:14:32;;;;;;;2.75;0.73;;;16.30;65.70;;;;;;4791520;30;20062;-73
2022/09/25 21:16:58;;;;;;;4.53;0.70;;;16.30;65.70;;;;;;4791430;30;20063;-72
2022/09/25 21:19:24;;;;;;;3.60;0.43;;;16.30;65.70;;;;;;4791048;30;20044;-73